• Join FlightAware (Why Join?)
  • Login
  • US Flag 
12:43AM EDT


 

Airport Tracker/Info


-or-


 

Live Flight TrackerFlight Track Log ✈ AAL2384 ✈ 26-Apr-2013 ✈ KDFW - KORD

Flight Track Log - Related Links

Times and Time Zones

All times are in EDT time to prevent confusion due to time zone crossing. See the AAL2384 flight status page for this flight to view local times or setup timezone preferences in your user account.

Time Position Orientation Groundspeed Altitude Reporting Facility
EDT Latitude Longitude Course Direction KTS MPH feet Rate Location/Type
10:29PM 32.8333 -97.0500 331° Northwest 193 222 3,200  Level Dallas / Fort Worth TRACON
10:30PM 32.7626 -96.8369 77° East  Level FlightAware Approximate
10:31PM 32.8745 -96.8000 North  Level FlightAware Approximate
10:31PM 32.7642 -97.1342 226° Southwest 208 239 7,300  Level Fort Worth Center
10:32PM 32.9991 -96.8094 333° Northwest  Level FlightAware Approximate
10:32PM 32.7728 -97.2231 277° West 239 275 9,300  Level Fort Worth Center
10:33PM 33.1110 -96.8795 331° Northwest  Level FlightAware Approximate
10:33PM 32.8333 -97.2725 326° Northwest 226 260 11,000  Level Fort Worth Center
10:34PM 33.2215 -96.9531 331° Northwest  Level FlightAware Approximate
10:34PM 32.9336 -97.2722 360° North 286 329 12,800  Level Fort Worth Center
10:35PM 33.0358 -97.2622 North 343 395 15,200 2,400 Climbing Fort Worth Center
10:36PM 33.1464 -97.2200 18° North 400 460 17,600 2,040 Climbing Fort Worth Center
10:37PM 33.2589 -97.1775 18° North 415 478 19,300 1,800 Climbing Fort Worth Center
10:38PM 33.3675 -97.1397 16° North 428 493 21,200 1,860 Climbing Fort Worth Center
10:39PM 33.4989 -97.0897 18° North 441 507 23,100 1,860 Climbing Fort Worth Center
10:40PM 33.6197 -97.0294 23° Northeast 452 520 25,000 1,680 Climbing Fort Worth Center
10:41PM 33.7364 -96.9614 26° Northeast 460 529 26,500 1,500 Climbing Fort Worth Center
10:42PM 33.8592 -96.8956 24° Northeast 460 529 28,000 1,200 Climbing Fort Worth Center
10:43PM 33.9822 -96.8297 24° Northeast 465 535 29,000 720 Climbing Fort Worth Center
10:44PM 34.0903 -96.7689 25° Northeast 465 535 29,500 900 Climbing Fort Worth Center
10:45PM 34.2047 -96.7053 25° Northeast 458 527 30,800 1,200 Climbing Fort Worth Center
10:46PM 34.3211 -96.6264 29° Northeast 464 534 32,000 1,080 Climbing Fort Worth Center
10:47PM 34.4478 -96.5269 33° Northeast 485 558 33,000 1,260 Climbing Fort Worth Center
10:48PM 34.5578 -96.4428 32° Northeast 491 565 34,600 960 Climbing Fort Worth Center
10:49PM 34.6633 -96.3531 35° Northeast 470 541 35,000 180 Climbing Fort Worth Center
10:50PM 34.7669 -96.2633 35° Northeast 464 534 35,000  Level Fort Worth Center
10:51PM 34.8725 -96.1733 35° Northeast 459 528 35,000  Level Fort Worth Center
10:52PM 34.9819 -96.0781 35° Northeast 465 535 35,000  Level Fort Worth Center
10:53PM 35.0875 -95.9875 35° Northeast 465 535 35,000  Level Fort Worth Center
10:54PM 35.1969 -95.8944 35° Northeast 465 535 35,000  Level Fort Worth Center
10:55PM 35.3042 -95.8083 33° Northeast 465 535 35,000  Level Fort Worth Center
10:56PM 35.4114 -95.7147 35° Northeast 465 535 35,000  Level Fort Worth Center
10:57PM 35.5167 -95.6233 35° Northeast 465 535 35,000  Level Fort Worth Center
10:58PM 35.6214 -95.5292 36° Northeast 460 529 35,000  Level Fort Worth Center
10:58PM 35.6850 -95.4711 37° Northeast 467 537 35,000  Level Kansas City Center
10:59PM 35.7908 -95.3772 36° Northeast 468 539 35,000  Level Kansas City Center
11:00PM 35.8967 -95.2842 35° Northeast 469 540 35,000  Level Kansas City Center
11:01PM 36.0028 -95.1903 36° Northeast 470 541 35,000  Level Kansas City Center
11:02PM 36.1083 -95.0953 36° Northeast 471 542 35,000  Level Kansas City Center
11:03PM 36.2147 -95.0017 35° Northeast 473 544 35,000  Level Kansas City Center
11:04PM 36.3208 -94.9064 36° Northeast 474 545 35,000  Level Kansas City Center
11:05PM 36.4275 -94.8108 36° Northeast 474 545 35,000  Level Kansas City Center
11:06PM 36.5364 -94.7131 36° Northeast 481 554 35,000  Level Kansas City Center
11:07PM 36.6669 -94.5953 36° Northeast 483 556 35,000  Level Kansas City Center
11:08PM 36.7769 -94.4967 36° Northeast 486 559 35,000  Level Kansas City Center
11:09PM 36.8842 -94.3964 37° Northeast 484 557 35,000  Level Kansas City Center
11:10PM 36.9897 -94.2925 38° Northeast 483 556 35,000  Level Kansas City Center
11:11PM 37.0944 -94.1875 39° Northeast 482 555 35,000  Level Kansas City Center
11:12PM 37.2003 -94.0839 38° Northeast 481 554 35,000  Level Kansas City Center
11:13PM 37.3067 -93.9811 38° Northeast 480 552 35,000  Level Kansas City Center
11:14PM 37.4136 -93.8753 38° Northeast 485 558 35,000  Level Kansas City Center
11:15PM 37.5219 -93.7692 38° Northeast 489 563 35,000  Level Kansas City Center
11:17PM 37.6275 -93.6628 39° Northeast 486 559 35,000  Level Kansas City Center
11:18PM 37.7325 -93.5556 39° Northeast 483 556 35,000  Level Kansas City Center
11:19PM 37.8392 -93.4483 38° Northeast 484 557 35,000  Level Kansas City Center
11:20PM 37.9461 -93.3417 38° Northeast 486 559 35,000  Level Kansas City Center
11:21PM 38.0536 -93.2314 39° Northeast 490 564 35,000  Level Kansas City Center
11:22PM 38.1614 -93.1225 38° Northeast 491 565 35,000  Level Kansas City Center
11:23PM 38.2692 -93.0117 39° Northeast 492 566 35,000  Level Kansas City Center
11:24PM 38.3747 -92.9039 39° Northeast 484 557 35,000  Level Kansas City Center
11:25PM 38.4792 -92.7950 39° Northeast 480 552 35,000 -420 Level Kansas City Center
11:26PM 38.5853 -92.6844 39° Northeast 482 555 34,200 -900 Descending Kansas City Center
11:27PM 38.6942 -92.5719 39° Northeast 494 568 33,200 -600 Descending Kansas City Center
11:28PM 38.8008 -92.4581 40° Northeast 496 571 33,000 -120 Descending Kansas City Center
11:29PM 38.9067 -92.3456 40° Northeast 492 566 33,000  Level Kansas City Center
11:30PM 39.0150 -92.2336 39° Northeast 495 570 33,000 -300 Level Kansas City Center
11:31PM 39.1200 -92.1175 41° Northeast 495 570 32,400 -840 Descending Kansas City Center
11:32PM 39.2031 -91.9719 54° Northeast 498 573 31,400 -720 Descending Kansas City Center
11:33PM 39.2933 -91.8144 53° Northeast 504 580 31,000 -240 Descending Kansas City Center
11:34PM 39.3842 -91.6572 53° Northeast 509 586 31,000  Level Kansas City Center
11:35PM 39.4825 -91.4828 54° Northeast 503 579 31,000  Level Kansas City Center
11:36PM 39.5547 -91.3558 54° Northeast 498 573 31,000  Level Kansas City Center
11:37PM 39.6428 -91.1992 54° Northeast 488 562 31,000  Level Kansas City Center
11:38PM 39.7281 -91.0642 51° Northeast 485 558 31,000  Level Kansas City Center
11:39PM 39.8333 -90.9553 38° Northeast 477 549 31,000  Level Kansas City Center
11:40PM 39.9394 -90.8494 37° Northeast 480 552 31,000  Level Kansas City Center
11:41PM 40.0628 -90.7214 38° Northeast 474 545 31,000  Level Kansas City Center
11:42PM 40.1664 -90.6158 38° Northeast 473 544 31,000  Level Kansas City Center
11:43PM 40.2083 -90.5736 38° Northeast 473 544 31,000  Level Chicago Center
11:44PM 40.3119 -90.4667 38° Northeast 472 543 31,000 -120 Level Chicago Center
11:45PM 40.4156 -90.3600 38° Northeast 473 544 30,800 -840 Descending Chicago Center
11:46PM 40.5289 -90.2428 38° Northeast 472 543 29,400 -1,380 Descending Chicago Center
11:47PM 40.6336 -90.1358 38° Northeast 478 550 28,100 -1,320 Descending Chicago Center
11:48PM 40.7364 -90.0258 39° Northeast 478 550 26,800 -1,500 Descending Chicago Center
11:49PM 40.8219 -89.8886 50° Northeast 485 558 25,100 -1,740 Descending Chicago Center
11:50PM 40.8947 -89.7567 54° Northeast 450 518 23,400 -1,920 Descending Chicago Center
11:51PM 40.9711 -89.6361 50° Northeast 432 497 21,300 -1,980 Descending Chicago Center
11:52PM 41.0439 -89.5136 52° Northeast 417 480 19,400 -1,740 Descending Chicago Center
11:53PM 41.1125 -89.3989 52° Northeast 400 460 17,800 -1,380 Descending Chicago Center
11:54PM 41.1778 -89.2858 52° Northeast 389 448 16,700 -1,260 Descending Chicago Center
11:55PM 41.2403 -89.1786 52° Northeast 382 440 15,300 -1,380 Descending Chicago Center
11:56PM 41.3022 -89.0706 53° Northeast 368 423 13,900 -1,440 Descending Chicago Center
11:57PM 41.3642 -88.9617 53° Northeast 367 422 12,500 -1,380 Descending Chicago Center
11:58PM 41.4231 -88.8597 52° Northeast 349 402 11,200 -780 Descending Chicago Center
11:59PM 41.4819 -88.7617 51° Northeast 339 390 11,000 -120 Descending Chicago Center
12:00AM 41.5414 -88.6336 58° Northeast 338 389 11,000  Level Chicago Center
12:01AM 41.5861 -88.5208 62° Northeast 341 392 11,000  Level Chicago Center
12:02AM 41.6383 -88.4147 57° Northeast 342 394 11,000  Level Chicago Center
12:03AM 41.6978 -88.3144 52° Northeast 341 392 11,000 -180 Level Chicago Center
12:04AM 41.7564 -88.2161 51° Northeast 337 388 10,700 -720 Descending Chicago Center
12:05AM 41.8044 -88.1314 53° Northeast 290 334 9,600 -1,620 Descending Chicago Center
12:06AM 41.8514 -88.0492 53° Northeast 277 319 7,500 -1,320 Descending Chicago Center
12:07AM 41.9131 -87.9861 37° Northeast 291 335 7,000 -420 Descending Chicago Center
12:07AM 41.9333 -88.0000 333° Northwest 291 335 7,000  Level Chicago TRACON
12:08AM 42.0000 -88.0500 331° Northwest 245 282 7,000 -600 Level Chicago TRACON
12:09AM 42.0500 -88.1000 323° Northwest 197 227 5,900 -1,380 Descending Chicago TRACON
12:10AM 42.0833 -88.1333 323° Northwest 197 227 4,400 -1,080 Descending Chicago TRACON
12:11AM 42.1244 -88.1408 352° North 214 246 4,000 -540 Descending Chicago Center
12:12AM 42.1414 -88.0808 69° East 196 226 3,500 -480 Descending Chicago Center
12:13AM 42.1100 -88.0364 134° Southeast 175 201 3,100 -480 Descending Chicago Center
12:13AM 42.1000 -88.0167 124° Southeast 164 189 2,900 -720 Descending Chicago TRACON
12:14AM 42.0667 -87.9833 143° Southeast 154 177 2,200 -720 Descending Chicago TRACON